sensor_id;sensor_type;location;lat;lon;timestamp;pressure;altitude;pressure_sealevel;temperature;humidity
61963;BME280;47927;42.646;23.096;2022-09-27T00:01:02;91363.47;;;16.88;70.21
61963;BME280;47927;42.646;23.096;2022-09-27T00:03:28;91327.34;;;16.47;70.33
61963;BME280;47927;42.646;23.096;2022-09-27T00:08:34;91373.75;;;17.75;66.50
61963;BME280;47927;42.646;23.096;2022-09-27T00:11:01;91370.03;;;17.09;68.69
61963;BME280;47927;42.646;23.096;2022-09-27T00:13:27;91384.47;;;17.17;68.50
61963;BME280;47927;42.646;23.096;2022-09-27T00:16:00;91386.47;;;16.55;71.24
61963;BME280;47927;42.646;23.096;2022-09-27T00:18:29;91382.00;;;16.68;70.75
61963;BME280;47927;42.646;23.096;2022-09-27T00:20:55;91389.00;;;17.42;68.70
61963;BME280;47927;42.646;23.096;2022-09-27T00:23:21;91378.81;;;17.57;67.34
61963;BME280;47927;42.646;23.096;2022-09-27T00:25:56;91379.03;;;17.50;67.99
61963;BME280;47927;42.646;23.096;2022-09-27T00:28:23;91362.16;;;17.35;68.38
61963;BME280;47927;42.646;23.096;2022-09-27T00:30:49;91378.13;;;17.02;69.58
61963;BME280;47927;42.646;23.096;2022-09-27T00:33:14;91368.97;;;17.06;69.38
61963;BME280;47927;42.646;23.096;2022-09-27T00:35:40;91371.44;;;17.52;68.09
61963;BME280;47927;42.646;23.096;2022-09-27T00:38:06;91359.00;;;17.27;68.63
61963;BME280;47927;42.646;23.096;2022-09-27T00:40:31;91354.84;;;16.71;71.02
61963;BME280;47927;42.646;23.096;2022-09-27T00:42:57;91352.59;;;16.86;70.91
61963;BME280;47927;42.646;23.096;2022-09-27T00:45:23;91348.97;;;17.22;69.36
61963;BME280;47927;42.646;23.096;2022-09-27T00:47:54;91347.22;;;17.31;69.10
61963;BME280;47927;42.646;23.096;2022-09-27T00:50:34;91342.28;;;17.46;68.14
61963;BME280;47927;42.646;23.096;2022-09-27T00:55:37;91341.88;;;16.80;70.29
61963;BME280;47927;42.646;23.096;2022-09-27T00:58:05;91345.59;;;17.08;69.44
61963;BME280;47927;42.646;23.096;2022-09-27T01:00:32;91335.31;;;17.14;69.15
61963;BME280;47927;42.646;23.096;2022-09-27T01:03:00;91308.44;;;16.81;70.26
61963;BME280;47927;42.646;23.096;2022-09-27T01:05:28;91319.41;;;17.05;69.63
61963;BME280;47927;42.646;23.096;2022-09-27T01:07:54;91318.97;;;16.94;69.92
61963;BME280;47927;42.646;23.096;2022-09-27T01:10:22;91315.59;;;17.06;69.40
61963;BME280;47927;42.646;23.096;2022-09-27T01:13:12;91323.28;;;17.00;69.65
61963;BME280;47927;42.646;23.096;2022-09-27T01:15:58;91323.09;;;17.07;69.51
61963;BME280;47927;42.646;23.096;2022-09-27T01:18:32;91337.75;;;17.34;68.47
61963;BME280;47927;42.646;23.096;2022-09-27T01:35:02;91327.47;;;16.85;70.57
61963;BME280;47927;42.646;23.096;2022-09-27T01:37:43;91322.22;;;16.85;70.71
61963;BME280;47927;42.646;23.096;2022-09-27T01:44:02;91315.25;;;16.78;70.36
61963;BME280;47927;42.646;23.096;2022-09-27T01:46:44;91335.38;;;16.98;70.01
61963;BME280;47927;42.646;23.096;2022-09-27T01:49:44;91332.84;;;16.81;70.17
61963;BME280;47927;42.646;23.096;2022-09-27T01:52:16;91329.88;;;16.50;71.42
61963;BME280;47927;42.646;23.096;2022-09-27T01:54:48;91317.78;;;16.53;71.78
61963;BME280;47927;42.646;23.096;2022-09-27T01:57:34;91311.63;;;16.30;72.50
61963;BME280;47927;42.646;23.096;2022-09-27T02:00:09;91298.06;;;15.37;76.58
61963;BME280;47927;42.646;23.096;2022-09-27T02:02:48;91292.81;;;15.21;77.63
61963;BME280;47927;42.646;23.096;2022-09-27T02:05:46;91296.00;;;15.28;78.26
61963;BME280;47927;42.646;23.096;2022-09-27T02:09:11;91276.22;;;15.08;78.70
61963;BME280;47927;42.646;23.096;2022-09-27T02:12:05;91264.94;;;15.43;77.61
61963;BME280;47927;42.646;23.096;2022-09-27T02:14:49;91264.09;;;15.46;77.15
61963;BME280;47927;42.646;23.096;2022-09-27T02:17:30;91265.91;;;15.66;76.62
61963;BME280;47927;42.646;23.096;2022-09-27T02:23:19;91246.00;;;15.19;78.18
61963;BME280;47927;42.646;23.096;2022-09-27T02:25:56;91242.53;;;15.55;76.80
61963;BME280;47927;42.646;23.096;2022-09-27T02:28:34;91239.34;;;16.09;75.24
61963;BME280;47927;42.646;23.096;2022-09-27T02:31:04;91238.06;;;16.01;74.24
61963;BME280;47927;42.646;23.096;2022-09-27T02:34:39;91241.06;;;16.00;74.78
61963;BME280;47927;42.646;23.096;2022-09-27T02:36:34;91232.13;;;16.26;73.40
61963;BME280;47927;42.646;23.096;2022-09-27T02:39:00;91230.81;;;15.60;75.08
61963;BME280;47927;42.646;23.096;2022-09-27T02:41:27;91233.25;;;15.83;75.02
61963;BME280;47927;42.646;23.096;2022-09-27T02:44:03;91231.22;;;16.04;73.60
61963;BME280;47927;42.646;23.096;2022-09-27T02:55:17;91238.66;;;16.89;69.54
61963;BME280;47927;42.646;23.096;2022-09-27T02:57:56;91237.94;;;17.01;69.57
61963;BME280;47927;42.646;23.096;2022-09-27T03:00:55;91224.03;;;17.01;69.05
61963;BME280;47927;42.646;23.096;2022-09-27T03:04:14;91207.72;;;16.93;68.73
61963;BME280;47927;42.646;23.096;2022-09-27T03:06:44;91210.47;;;16.77;69.28
61963;BME280;47927;42.646;23.096;2022-09-27T03:09:21;91212.03;;;17.00;69.11
61963;BME280;47927;42.646;23.096;2022-09-27T03:11:47;91205.41;;;16.95;68.86
61963;BME280;47927;42.646;23.096;2022-09-27T03:14:13;91196.44;;;17.18;67.50
61963;BME280;47927;42.646;23.096;2022-09-27T03:16:48;91192.03;;;16.64;69.41
61963;BME280;47927;42.646;23.096;2022-09-27T03:19:49;91187.00;;;16.15;71.44
61963;BME280;47927;42.646;23.096;2022-09-27T03:22:35;91175.81;;;16.40;70.57
61963;BME280;47927;42.646;23.096;2022-09-27T03:25:04;91179.06;;;16.44;70.83
61963;BME280;47927;42.646;23.096;2022-09-27T03:27:30;91176.66;;;16.50;70.75
61963;BME280;47927;42.646;23.096;2022-09-27T03:29:56;91181.41;;;16.80;69.46
61963;BME280;47927;42.646;23.096;2022-09-27T03:32:22;91181.38;;;17.31;67.46
61963;BME280;47927;42.646;23.096;2022-09-27T03:35:10;91175.38;;;17.18;67.43
61963;BME280;47927;42.646;23.096;2022-09-27T03:37:37;91174.03;;;17.48;66.80
61963;BME280;47927;42.646;23.096;2022-09-27T03:40:04;91181.06;;;17.29;67.07
61963;BME280;47927;42.646;23.096;2022-09-27T03:42:30;91178.25;;;17.46;66.59
61963;BME280;47927;42.646;23.096;2022-09-27T03:44:55;91196.00;;;17.33;66.89
61963;BME280;47927;42.646;23.096;2022-09-27T03:47:21;91201.28;;;17.07;67.50
61963;BME280;47927;42.646;23.096;2022-09-27T03:49:47;91177.31;;;17.05;67.74
61963;BME280;47927;42.646;23.096;2022-09-27T03:52:14;91185.59;;;17.29;66.98
61963;BME280;47927;42.646;23.096;2022-09-27T03:54:41;91182.34;;;17.60;66.14
61963;BME280;47927;42.646;23.096;2022-09-27T03:57:07;91177.50;;;17.23;66.89
61963;BME280;47927;42.646;23.096;2022-09-27T03:59:33;91182.22;;;17.16;67.39
61963;BME280;47927;42.646;23.096;2022-09-27T04:02:27;91190.75;;;16.56;69.57
61963;BME280;47927;42.646;23.096;2022-09-27T04:05:13;91186.66;;;16.42;70.21
61963;BME280;47927;42.646;23.096;2022-09-27T04:07:39;91173.31;;;16.88;68.80
61963;BME280;47927;42.646;23.096;2022-09-27T04:10:05;91173.50;;;17.06;68.14
61963;BME280;47927;42.646;23.096;2022-09-27T04:12:33;91169.25;;;17.34;67.10
61963;BME280;47927;42.646;23.096;2022-09-27T04:15:00;91154.69;;;16.69;68.67
61963;BME280;47927;42.646;23.096;2022-09-27T04:17:52;91161.72;;;16.47;70.12
61963;BME280;47927;42.646;23.096;2022-09-27T04:20:32;91167.16;;;16.27;71.44
61963;BME280;47927;42.646;23.096;2022-09-27T04:23:02;91163.13;;;16.90;69.13
61963;BME280;47927;42.646;23.096;2022-09-27T04:25:27;91167.09;;;17.07;67.98
61963;BME280;47927;42.646;23.096;2022-09-27T04:27:56;91179.81;;;17.21;67.80
61963;BME280;47927;42.646;23.096;2022-09-27T04:30:22;91189.22;;;16.97;68.44
61963;BME280;47927;42.646;23.096;2022-09-27T04:33:09;91183.84;;;16.88;68.92
61963;BME280;47927;42.646;23.096;2022-09-27T04:35:53;91183.13;;;16.87;69.19
61963;BME280;47927;42.646;23.096;2022-09-27T04:38:40;91191.69;;;16.62;70.30
61963;BME280;47927;42.646;23.096;2022-09-27T04:41:07;91182.69;;;16.89;69.51
61963;BME280;47927;42.646;23.096;2022-09-27T04:43:35;91185.19;;;16.92;68.81
61963;BME280;47927;42.646;23.096;2022-09-27T04:46:02;91197.28;;;16.64;70.02
61963;BME280;47927;42.646;23.096;2022-09-27T04:48:27;91207.81;;;16.64;69.85
61963;BME280;47927;42.646;23.096;2022-09-27T04:50:58;91198.41;;;16.50;70.95
61963;BME280;47927;42.646;23.096;2022-09-27T04:53:24;91190.47;;;16.79;69.79
61963;BME280;47927;42.646;23.096;2022-09-27T04:55:52;91194.03;;;16.73;70.26
61963;BME280;47927;42.646;23.096;2022-09-27T04:58:19;91186.75;;;17.15;69.07
61963;BME280;47927;42.646;23.096;2022-09-27T05:00:46;91183.16;;;17.22;68.34
61963;BME280;47927;42.646;23.096;2022-09-27T05:03:41;91190.16;;;17.03;69.04
61963;BME280;47927;42.646;23.096;2022-09-27T05:06:25;91192.41;;;16.24;71.28
61963;BME280;47927;42.646;23.096;2022-09-27T05:08:53;91185.31;;;16.08;73.07
61963;BME280;47927;42.646;23.096;2022-09-27T05:11:24;91187.19;;;16.08;73.29
61963;BME280;47927;42.646;23.096;2022-09-27T05:14:09;91187.53;;;15.64;74.96
61963;BME280;47927;42.646;23.096;2022-09-27T05:16:46;91187.88;;;16.25;73.27
61963;BME280;47927;42.646;23.096;2022-09-27T05:19:30;91172.72;;;16.03;73.34
61963;BME280;47927;42.646;23.096;2022-09-27T05:22:08;91170.59;;;15.69;74.80
61963;BME280;47927;42.646;23.096;2022-09-27T05:24:34;91166.81;;;15.70;75.16
61963;BME280;47927;42.646;23.096;2022-09-27T05:27:01;91165.28;;;15.85;74.36
61963;BME280;47927;42.646;23.096;2022-09-27T05:29:34;91166.16;;;15.95;73.93
61963;BME280;47927;42.646;23.096;2022-09-27T05:32:18;91156.91;;;15.90;73.96
61963;BME280;47927;42.646;23.096;2022-09-27T05:34:49;91166.06;;;15.99;73.44
61963;BME280;47927;42.646;23.096;2022-09-27T05:37:18;91177.66;;;15.56;75.06
61963;BME280;47927;42.646;23.096;2022-09-27T05:39:44;91168.16;;;15.45;75.52
61963;BME280;47927;42.646;23.096;2022-09-27T05:42:12;91166.84;;;15.37;75.67
61963;BME280;47927;42.646;23.096;2022-09-27T05:44:40;91172.78;;;15.09;76.79
61963;BME280;47927;42.646;23.096;2022-09-27T05:47:07;91182.34;;;15.32;76.42
61963;BME280;47927;42.646;23.096;2022-09-27T05:49:33;91173.16;;;15.85;73.96
61963;BME280;47927;42.646;23.096;2022-09-27T05:52:00;91177.78;;;16.23;72.78
61963;BME280;47927;42.646;23.096;2022-09-27T05:54:27;91176.31;;;16.48;71.47
61963;BME280;47927;42.646;23.096;2022-09-27T05:56:55;91174.19;;;16.17;71.79
61963;BME280;47927;42.646;23.096;2022-09-27T05:59:50;91161.38;;;16.19;71.83
61963;BME280;47927;42.646;23.096;2022-09-27T06:02:16;91182.97;;;16.39;70.97
61963;BME280;47927;42.646;23.096;2022-09-27T06:05:01;91168.19;;;15.75;73.25
61963;BME280;47927;42.646;23.096;2022-09-27T06:08:08;91167.38;;;15.61;74.12
61963;BME280;47927;42.646;23.096;2022-09-27T06:10:40;91183.22;;;15.74;73.27
61963;BME280;47927;42.646;23.096;2022-09-27T06:13:11;91182.97;;;15.52;74.43
61963;BME280;47927;42.646;23.096;2022-09-27T06:15:42;91183.13;;;15.32;75.66
61963;BME280;47927;42.646;23.096;2022-09-27T06:18:15;91184.56;;;14.84;77.71
61963;BME280;47927;42.646;23.096;2022-09-27T06:20:45;91176.31;;;15.02;76.97
61963;BME280;47927;42.646;23.096;2022-09-27T06:23:18;91181.22;;;15.78;74.95
61963;BME280;47927;42.646;23.096;2022-09-27T06:25:48;91177.91;;;15.90;73.38
61963;BME280;47927;42.646;23.096;2022-09-27T06:28:37;91174.53;;;15.90;73.39
61963;BME280;47927;42.646;23.096;2022-09-27T06:31:05;91166.22;;;15.79;73.84
61963;BME280;47927;42.646;23.096;2022-09-27T06:33:45;91186.66;;;16.42;71.00
61963;BME280;47927;42.646;23.096;2022-09-27T06:36:12;91188.94;;;16.27;70.96
61963;BME280;47927;42.646;23.096;2022-09-27T06:38:40;91183.13;;;16.07;72.07
61963;BME280;47927;42.646;23.096;2022-09-27T06:41:30;91172.13;;;16.37;71.25
61963;BME280;47927;42.646;23.096;2022-09-27T06:44:09;91165.22;;;16.69;69.82
61963;BME280;47927;42.646;23.096;2022-09-27T06:46:58;91173.09;;;16.02;72.22
61963;BME280;47927;42.646;23.096;2022-09-27T06:49:42;91172.56;;;15.65;73.98
61963;BME280;47927;42.646;23.096;2022-09-27T06:52:07;91164.31;;;15.79;73.47
61963;BME280;47927;42.646;23.096;2022-09-27T06:54:33;91190.00;;;16.43;71.76
61963;BME280;47927;42.646;23.096;2022-09-27T06:56:59;91187.31;;;16.84;70.14
61963;BME280;47927;42.646;23.096;2022-09-27T06:59:24;91187.19;;;16.75;70.40
61963;BME280;47927;42.646;23.096;2022-09-27T07:02:27;91189.81;;;16.62;71.09
61963;BME280;47927;42.646;23.096;2022-09-27T07:05:16;91181.72;;;16.57;71.68
61963;BME280;47927;42.646;23.096;2022-09-27T07:08:06;91181.72;;;16.57;71.44
61963;BME280;47927;42.646;23.096;2022-09-27T07:10:34;91178.94;;;16.22;72.87
61963;BME280;47927;42.646;23.096;2022-09-27T07:13:07;91181.06;;;16.27;72.22
61963;BME280;47927;42.646;23.096;2022-09-27T07:15:34;91185.88;;;16.16;72.54
61963;BME280;47927;42.646;23.096;2022-09-27T07:18:07;91192.88;;;16.61;72.01
61963;BME280;47927;42.646;23.096;2022-09-27T07:20:34;91178.53;;;16.62;71.42
61963;BME280;47927;42.646;23.096;2022-09-27T07:23:04;91190.06;;;16.81;70.61
61963;BME280;47927;42.646;23.096;2022-09-27T07:25:31;91175.00;;;16.69;71.32
61963;BME280;47927;42.646;23.096;2022-09-27T07:28:03;91200.03;;;16.86;71.15
61963;BME280;47927;42.646;23.096;2022-09-27T07:30:29;91192.06;;;16.22;73.25
61963;BME280;47927;42.646;23.096;2022-09-27T07:32:59;91211.50;;;15.83;74.59
61963;BME280;47927;42.646;23.096;2022-09-27T07:35:25;91199.66;;;15.45;76.18
61963;BME280;47927;42.646;23.096;2022-09-27T07:37:52;91195.94;;;15.59;75.87
61963;BME280;47927;42.646;23.096;2022-09-27T07:40:20;91187.44;;;16.26;72.86
61963;BME280;47927;42.646;23.096;2022-09-27T07:42:45;91190.03;;;15.55;76.15
61963;BME280;47927;42.646;23.096;2022-09-27T07:45:11;91195.41;;;15.35;77.45
61963;BME280;47927;42.646;23.096;2022-09-27T07:47:57;91195.06;;;15.33;77.77
61963;BME280;47927;42.646;23.096;2022-09-27T07:50:42;91202.03;;;15.40;76.86
61963;BME280;47927;42.646;23.096;2022-09-27T07:53:37;91199.47;;;15.53;76.58
61963;BME280;47927;42.646;23.096;2022-09-27T07:56:26;91199.59;;;15.16;78.38
61963;BME280;47927;42.646;23.096;2022-09-27T07:58:52;91200.44;;;15.75;76.14
61963;BME280;47927;42.646;23.096;2022-09-27T08:01:18;91202.13;;;16.11;74.60
61963;BME280;47927;42.646;23.096;2022-09-27T08:03:44;91199.34;;;16.44;73.56
61963;BME280;47927;42.646;23.096;2022-09-27T08:06:11;91194.69;;;16.77;72.08
61963;BME280;47927;42.646;23.096;2022-09-27T08:08:38;91180.47;;;17.00;71.07
61963;BME280;47927;42.646;23.096;2022-09-27T08:11:15;91179.94;;;16.92;71.51
61963;BME280;47927;42.646;23.096;2022-09-27T08:13:43;91175.22;;;17.00;71.28
61963;BME280;47927;42.646;23.096;2022-09-27T08:16:10;91185.50;;;16.56;72.77
61963;BME280;47927;42.646;23.096;2022-09-27T08:19:02;91176.75;;;16.33;72.80
61963;BME280;47927;42.646;23.096;2022-09-27T08:21:46;91166.03;;;16.28;74.10
61963;BME280;47927;42.646;23.096;2022-09-27T08:24:26;91160.31;;;16.04;74.36
61963;BME280;47927;42.646;23.096;2022-09-27T08:27:11;91155.31;;;16.60;72.86
61963;BME280;47927;42.646;23.096;2022-09-27T08:29:52;91152.88;;;16.40;73.90
61963;BME280;47927;42.646;23.096;2022-09-27T08:32:17;91145.44;;;16.52;73.20
61963;BME280;47927;42.646;23.096;2022-09-27T08:34:43;91141.97;;;16.55;73.75
61963;BME280;47927;42.646;23.096;2022-09-27T08:37:09;91151.13;;;16.76;73.48
61963;BME280;47927;42.646;23.096;2022-09-27T08:39:37;91136.09;;;17.24;72.39
61963;BME280;47927;42.646;23.096;2022-09-27T08:53:19;91130.47;;;17.82;70.55
61963;BME280;47927;42.646;23.096;2022-09-27T08:55:49;91138.50;;;17.66;71.06
61963;BME280;47927;42.646;23.096;2022-09-27T08:58:36;91131.50;;;17.50;71.85
61963;BME280;47927;42.646;23.096;2022-09-27T09:01:13;91137.50;;;17.72;70.62
61963;BME280;47927;42.646;23.096;2022-09-27T09:03:56;91135.03;;;18.13;68.89
61963;BME280;47927;42.646;23.096;2022-09-27T09:06:27;91134.00;;;18.41;67.57
61963;BME280;47927;42.646;23.096;2022-09-27T09:11:53;91151.63;;;18.85;67.13
61963;BME280;47927;42.646;23.096;2022-09-27T09:28:39;91145.25;;;19.04;67.35
61963;BME280;47927;42.646;23.096;2022-09-27T09:33:55;91133.38;;;18.68;68.54
61963;BME280;47927;42.646;23.096;2022-09-27T09:36:31;91148.19;;;19.16;67.94
61963;BME280;47927;42.646;23.096;2022-09-27T09:41:40;91158.00;;;19.15;66.45
61963;BME280;47927;42.646;23.096;2022-09-27T09:44:20;91156.31;;;18.81;68.56
61963;BME280;47927;42.646;23.096;2022-09-27T09:46:52;91143.69;;;18.44;67.97
61963;BME280;47927;42.646;23.096;2022-09-27T09:49:28;91151.69;;;18.63;68.43
61963;BME280;47927;42.646;23.096;2022-09-27T09:52:00;91145.63;;;18.53;68.13
61963;BME280;47927;42.646;23.096;2022-09-27T09:54:35;91142.44;;;18.67;67.30
61963;BME280;47927;42.646;23.096;2022-09-27T09:57:22;91136.22;;;18.52;68.64
61963;BME280;47927;42.646;23.096;2022-09-27T10:00:14;91151.59;;;18.76;68.16
61963;BME280;47927;42.646;23.096;2022-09-27T10:02:48;91145.97;;;19.05;67.23
61963;BME280;47927;42.646;23.096;2022-09-27T10:05:22;91143.09;;;19.49;65.76
61963;BME280;47927;42.646;23.096;2022-09-27T10:07:57;91134.72;;;19.59;65.64
61963;BME280;47927;42.646;23.096;2022-09-27T10:10:25;91143.88;;;19.68;65.27
61963;BME280;47927;42.646;23.096;2022-09-27T10:13:02;91133.53;;;19.42;65.67
61963;BME280;47927;42.646;23.096;2022-09-27T10:15:32;91140.06;;;19.87;64.69
61963;BME280;47927;42.646;23.096;2022-09-27T10:17:58;91130.50;;;19.71;64.36
61963;BME280;47927;42.646;23.096;2022-09-27T10:20:46;91133.69;;;19.48;65.02
61963;BME280;47927;42.646;23.096;2022-09-27T10:23:18;91127.69;;;19.56;65.41
61963;BME280;47927;42.646;23.096;2022-09-27T10:26:09;91125.22;;;19.99;64.51
61963;BME280;47927;42.646;23.096;2022-09-27T10:28:48;91122.59;;;20.41;62.95
61963;BME280;47927;42.646;23.096;2022-09-27T10:31:21;91111.75;;;20.30;62.69
61963;BME280;47927;42.646;23.096;2022-09-27T10:34:02;91112.00;;;19.44;64.31
61963;BME280;47927;42.646;23.096;2022-09-27T10:36:40;91118.44;;;19.52;64.41
61963;BME280;47927;42.646;23.096;2022-09-27T10:39:20;91118.59;;;19.94;64.62
61963;BME280;47927;42.646;23.096;2022-09-27T10:41:49;91112.44;;;20.49;63.50
61963;BME280;47927;42.646;23.096;2022-09-27T10:44:36;91114.13;;;21.04;61.18
61963;BME280;47927;42.646;23.096;2022-09-27T10:47:35;91107.53;;;21.23;61.28
61963;BME280;47927;42.646;23.096;2022-09-27T10:50:15;91103.47;;;20.89;60.39
61963;BME280;47927;42.646;23.096;2022-09-27T10:53:03;91102.69;;;20.98;59.81
61963;BME280;47927;42.646;23.096;2022-09-27T10:55:35;91098.47;;;20.58;61.62
61963;BME280;47927;42.646;23.096;2022-09-27T10:58:02;91101.78;;;20.25;63.10
61963;BME280;47927;42.646;23.096;2022-09-27T11:00:33;91104.56;;;20.73;61.95
61963;BME280;47927;42.646;23.096;2022-09-27T11:03:05;91087.06;;;21.24;60.59
61963;BME280;47927;42.646;23.096;2022-09-27T11:05:37;91090.47;;;21.24;60.15
61963;BME280;47927;42.646;23.096;2022-09-27T11:08:21;91091.84;;;22.27;58.57
61963;BME280;47927;42.646;23.096;2022-09-27T11:11:14;91088.06;;;22.84;57.27
61963;BME280;47927;42.646;23.096;2022-09-27T11:13:59;91082.06;;;22.68;56.75
61963;BME280;47927;42.646;23.096;2022-09-27T11:27:44;91067.22;;;22.26;56.08
61963;BME280;47927;42.646;23.096;2022-09-27T11:30:23;91050.91;;;22.48;57.51
61963;BME280;47927;42.646;23.096;2022-09-27T11:33:38;91043.34;;;22.26;57.54
61963;BME280;47927;42.646;23.096;2022-09-27T11:39:22;91036.81;;;22.42;55.13
61963;BME280;47927;42.646;23.096;2022-09-27T12:06:16;90998.34;;;22.32;54.04
61963;BME280;47927;42.646;23.096;2022-09-27T12:12:17;90991.06;;;23.03;51.84
61963;BME280;47927;42.646;23.096;2022-09-27T12:14:42;90981.66;;;22.87;52.67
61963;BME280;47927;42.646;23.096;2022-09-27T12:17:15;90988.88;;;22.66;53.11
61963;BME280;47927;42.646;23.096;2022-09-27T12:19:49;90973.25;;;22.89;52.40
61963;BME280;47927;42.646;23.096;2022-09-27T12:22:31;90975.72;;;23.13;50.96
61963;BME280;47927;42.646;23.096;2022-09-27T12:25:00;90977.28;;;22.84;50.81
61963;BME280;47927;42.646;23.096;2022-09-27T12:27:59;90966.47;;;22.88;50.48
61963;BME280;47927;42.646;23.096;2022-09-27T12:30:28;90962.56;;;23.24;50.39
61963;BME280;47927;42.646;23.096;2022-09-27T12:33:12;90964.19;;;22.60;51.77
61963;BME280;47927;42.646;23.096;2022-09-27T12:35:46;90955.09;;;22.87;52.43
61963;BME280;47927;42.646;23.096;2022-09-27T12:38:24;90947.91;;;23.08;52.11
61963;BME280;47927;42.646;23.096;2022-09-27T12:40:54;90937.66;;;23.01;52.66
61963;BME280;47927;42.646;23.096;2022-09-27T12:43:30;90941.72;;;22.56;53.23
61963;BME280;47927;42.646;23.096;2022-09-27T12:46:27;90946.91;;;22.65;53.04
61963;BME280;47927;42.646;23.096;2022-09-27T12:51:45;90937.53;;;22.49;53.67
61963;BME280;47927;42.646;23.096;2022-09-27T12:55:03;90936.34;;;23.11;51.41
61963;BME280;47927;42.646;23.096;2022-09-27T13:13:59;90961.75;;;23.18;49.27
61963;BME280;47927;42.646;23.096;2022-09-27T13:16:27;90948.13;;;23.31;48.66
61963;BME280;47927;42.646;23.096;2022-09-27T13:18:58;90946.25;;;23.37;48.17
61963;BME280;47927;42.646;23.096;2022-09-27T13:32:34;90934.88;;;22.69;52.57
61963;BME280;47927;42.646;23.096;2022-09-27T13:35:21;90933.41;;;22.68;52.13
61963;BME280;47927;42.646;23.096;2022-09-27T13:37:58;90935.53;;;22.44;53.00
61963;BME280;47927;42.646;23.096;2022-09-27T13:40:46;90948.69;;;22.94;51.65
61963;BME280;47927;42.646;23.096;2022-09-27T13:44:00;90959.09;;;22.77;51.20
61963;BME280;47927;42.646;23.096;2022-09-27T13:46:45;90937.50;;;22.28;53.51
61963;BME280;47927;42.646;23.096;2022-09-27T13:49:27;90958.25;;;22.86;51.74
61963;BME280;47927;42.646;23.096;2022-09-27T13:56:03;90957.53;;;22.15;53.21
61963;BME280;47927;42.646;23.096;2022-09-27T13:58:49;90954.94;;;22.70;52.55
61963;BME280;47927;42.646;23.096;2022-09-27T14:01:50;90941.91;;;22.32;52.42
61963;BME280;47927;42.646;23.096;2022-09-27T14:04:23;90947.09;;;21.91;53.76
61963;BME280;47927;42.646;23.096;2022-09-27T14:06:54;90941.00;;;21.55;53.90
61963;BME280;47927;42.646;23.096;2022-09-27T14:09:28;90926.16;;;21.78;54.15
61963;BME280;47927;42.646;23.096;2022-09-27T14:12:19;90928.97;;;21.74;54.14
61963;BME280;47927;42.646;23.096;2022-09-27T14:14:47;90923.63;;;21.54;53.98
61963;BME280;47927;42.646;23.096;2022-09-27T14:17:14;90932.94;;;21.64;54.00
61963;BME280;47927;42.646;23.096;2022-09-27T14:19:42;90939.66;;;21.95;53.13
61963;BME280;47927;42.646;23.096;2022-09-27T14:22:15;90929.78;;;22.10;52.53
61963;BME280;47927;42.646;23.096;2022-09-27T14:24:54;90908.56;;;22.10;52.14
61963;BME280;47927;42.646;23.096;2022-09-27T14:27:27;90884.06;;;22.00;52.20
61963;BME280;47927;42.646;23.096;2022-09-27T14:30:13;90883.06;;;21.03;54.98
61963;BME280;47927;42.646;23.096;2022-09-27T14:32:49;90894.28;;;21.13;54.89
61963;BME280;47927;42.646;23.096;2022-09-27T14:35:24;90881.22;;;21.09;54.67
61963;BME280;47927;42.646;23.096;2022-09-27T14:38:15;90842.31;;;20.71;55.69
61963;BME280;47927;42.646;23.096;2022-09-27T14:40:59;90825.03;;;20.61;56.51
61963;BME280;47927;42.646;23.096;2022-09-27T14:43:25;90841.03;;;20.42;56.69
61963;BME280;47927;42.646;23.096;2022-09-27T14:45:55;90859.53;;;20.66;56.16
61963;BME280;47927;42.646;23.096;2022-09-27T14:48:26;90944.53;;;20.83;55.45
61963;BME280;47927;42.646;23.096;2022-09-27T14:51:00;91003.38;;;20.54;57.92
61963;BME280;47927;42.646;23.096;2022-09-27T16:40:35;91025.41;;;15.56;70.47
61963;BME280;47927;42.646;23.096;2022-09-27T16:43:01;91036.19;;;15.16;71.24
61963;BME280;47927;42.646;23.096;2022-09-27T16:45:29;91046.72;;;15.58;69.92
61963;BME280;47927;42.646;23.096;2022-09-27T16:47:58;91057.41;;;15.80;68.16
61963;BME280;47927;42.646;23.096;2022-09-27T16:50:23;91074.00;;;15.89;67.63
61963;BME280;47927;42.646;23.096;2022-09-27T16:53:07;91086.28;;;15.50;68.17
61963;BME280;47927;42.646;23.096;2022-09-27T16:55:34;91086.03;;;15.16;68.19
61963;BME280;47927;42.646;23.096;2022-09-27T16:58:00;91094.84;;;15.09;68.64
61963;BME280;47927;42.646;23.096;2022-09-27T17:00:28;91098.63;;;15.37;67.85
61963;BME280;47927;42.646;23.096;2022-09-27T17:02:55;91105.94;;;15.59;66.37
61963;BME280;47927;42.646;23.096;2022-09-27T17:05:21;91128.78;;;15.45;66.76
61963;BME280;47927;42.646;23.096;2022-09-27T17:07:51;91122.81;;;14.67;69.53
61963;BME280;47927;42.646;23.096;2022-09-27T17:10:18;91137.03;;;14.49;70.72
61963;BME280;47927;42.646;23.096;2022-09-27T17:12:44;91137.97;;;14.23;72.10
61963;BME280;47927;42.646;23.096;2022-09-27T17:15:14;91132.38;;;14.57;71.45
61963;BME280;47927;42.646;23.096;2022-09-27T17:17:40;91147.47;;;14.86;70.41
61963;BME280;47927;42.646;23.096;2022-09-27T17:20:05;91145.75;;;14.95;69.16
61963;BME280;47927;42.646;23.096;2022-09-27T17:22:31;91148.47;;;14.75;69.19
61963;BME280;47927;42.646;23.096;2022-09-27T17:24:57;91148.44;;;14.92;68.58
61963;BME280;47927;42.646;23.096;2022-09-27T17:27:23;91141.72;;;14.74;68.61
61963;BME280;47927;42.646;23.096;2022-09-27T17:29:54;91144.25;;;14.78;68.81
61963;BME280;47927;42.646;23.096;2022-09-27T17:32:19;91146.06;;;14.81;68.84
61963;BME280;47927;42.646;23.096;2022-09-27T17:34:51;91144.47;;;14.51;69.58
61963;BME280;47927;42.646;23.096;2022-09-27T17:37:17;91148.03;;;14.61;68.35
61963;BME280;47927;42.646;23.096;2022-09-27T17:39:43;91132.91;;;13.96;69.40
61963;BME280;47927;42.646;23.096;2022-09-27T17:42:09;91140.97;;;13.85;69.81